Time;durP1;ratioP1;P1;durP2;ratioP2;P2;SDS_P1;SDS_P2;PMS_P1;PMS_P2;Temp;Humidity;BMP_temperature;BMP_pressure;BME280_temperature;BME280_humidity;BME280_pressure;Samples;Min_cycle;Max_cycle;Signal;HPM_P1;HPM_P2
2021/09/29 00:00:06;;;;;;;22.00;12.52;;;14.90;99.90;;;;;;2089940;28;20474;-69
2021/09/29 00:01:12;;;;;;;22.73;12.18;;;15.00;99.90;;;;;;2089535;28;20502;-69
2021/09/29 00:02:12;;;;;;;19.05;11.57;;;15.00;99.90;;;;;;2088882;28;20021;-69
2021/09/29 00:03:13;;;;;;;15.85;11.02;;;15.00;99.90;;;;;;2090012;28;20486;-69
2021/09/29 00:04:14;;;;;;;19.33;10.65;;;15.00;99.90;;;;;;2090066;28;20486;-69
2021/09/29 00:05:14;;;;;;;18.10;11.23;;;15.00;99.90;;;;;;2090159;28;20060;-69
2021/09/29 00:06:15;;;;;;;15.80;10.88;;;15.00;99.90;;;;;;2089426;28;20055;-70
2021/09/29 00:07:16;;;;;;;17.92;10.82;;;15.00;99.90;;;;;;2081122;28;20038;-70
2021/09/29 00:08:16;;;;;;;18.25;11.60;;;15.00;99.90;;;;;;2081464;28;20129;-69
2021/09/29 00:09:17;;;;;;;17.75;11.27;;;15.00;99.90;;;;;;2089653;28;20025;-69
2021/09/29 00:10:18;;;;;;;15.68;10.65;;;15.00;99.90;;;;;;2090219;28;20029;-69
2021/09/29 00:11:18;;;;;;;17.92;11.55;;;15.00;99.90;;;;;;2090127;28;20068;-70
2021/09/29 00:12:21;;;;;;;17.13;11.25;;;15.00;99.90;;;;;;2089431;28;20063;-68
2021/09/29 00:13:24;;;;;;;18.95;11.73;;;15.00;99.90;;;;;;2090094;28;20039;-69
2021/09/29 00:14:24;;;;;;;22.25;12.35;;;15.00;99.90;;;;;;2090087;28;20017;-69
2021/09/29 00:15:25;;;;;;;16.88;11.45;;;15.00;99.90;;;;;;2090125;28;20033;-69
2021/09/29 00:16:26;;;;;;;23.50;13.27;;;15.00;99.90;;;;;;2090171;28;20028;-69
2021/09/29 00:17:26;;;;;;;21.13;13.30;;;15.00;99.90;;;;;;2090103;28;20471;-69
2021/09/29 00:18:27;;;;;;;17.70;11.90;;;15.00;99.90;;;;;;2090047;28;20025;-69
2021/09/29 00:19:28;;;;;;;22.27;13.57;;;15.00;99.90;;;;;;2090002;28;20032;-69
2021/09/29 00:20:28;;;;;;;23.35;12.98;;;15.00;99.90;;;;;;2089980;28;20516;-68
2021/09/29 00:21:29;;;;;;;19.10;12.75;;;15.00;99.90;;;;;;2089265;28;20497;-68
2021/09/29 00:22:29;;;;;;;22.70;13.32;;;15.00;99.90;;;;;;2088561;28;20105;-68
2021/09/29 00:23:30;;;;;;;21.30;13.30;;;15.00;99.90;;;;;;2089942;28;20032;-68
2021/09/29 00:24:31;;;;;;;20.67;12.70;;;15.00;99.90;;;;;;2089447;28;20033;-68
2021/09/29 00:25:31;;;;;;;20.17;12.52;;;15.00;99.90;;;;;;2089123;28;20068;-68
2021/09/29 00:26:32;;;;;;;20.73;12.63;;;15.00;99.90;;;;;;2090067;28;20041;-68
2021/09/29 00:27:33;;;;;;;18.67;12.35;;;15.00;99.90;;;;;;2090030;28;20083;-68
2021/09/29 00:28:33;;;;;;;19.35;12.15;;;15.00;99.90;;;;;;2089926;28;20041;-69
2021/09/29 00:29:34;;;;;;;20.58;12.73;;;15.00;99.90;;;;;;2089831;28;20108;-68
2021/09/29 00:30:38;;;;;;;21.65;14.45;;;15.00;99.90;;;;;;2089875;28;20029;-68
2021/09/29 00:31:39;;;;;;;20.55;12.93;;;15.00;99.90;;;;;;2089965;28;20021;-68
2021/09/29 00:32:42;;;;;;;21.02;13.27;;;15.00;99.90;;;;;;2088948;28;20078;-68
2021/09/29 00:33:46;;;;;;;20.80;12.98;;;15.00;99.90;;;;;;2089210;28;20718;-68
2021/09/29 00:34:47;;;;;;;20.90;12.82;;;15.00;99.90;;;;;;2089307;28;20037;-69
2021/09/29 00:35:48;;;;;;;18.90;12.52;;;15.00;99.90;;;;;;2089887;28;20032;-68
2021/09/29 00:36:48;;;;;;;21.30;13.30;;;15.00;99.90;;;;;;2080939;28;20025;-69
2021/09/29 00:37:49;;;;;;;21.08;13.43;;;14.90;99.90;;;;;;2080968;28;20036;-68
2021/09/29 00:38:49;;;;;;;21.13;13.00;;;15.00;99.90;;;;;;2089972;28;20493;-69
2021/09/29 00:39:50;;;;;;;24.95;14.20;;;15.00;99.90;;;;;;2097570;28;20044;-68
2021/09/29 00:40:50;;;;;;;23.77;13.75;;;15.00;99.90;;;;;;2097465;28;20024;-68
2021/09/29 00:41:51;;;;;;;20.20;13.40;;;15.00;99.90;;;;;;2088982;28;20024;-68
2021/09/29 00:42:52;;;;;;;22.23;13.70;;;15.00;99.90;;;;;;2089890;28;20059;-68
2021/09/29 00:43:53;;;;;;;22.85;13.50;;;15.00;99.90;;;;;;2089167;28;20041;-68
2021/09/29 00:44:53;;;;;;;25.75;15.65;;;15.00;99.90;;;;;;2089412;28;20025;-69
2021/09/29 00:45:54;;;;;;;25.88;15.57;;;15.00;99.90;;;;;;2089884;28;20445;-68
2021/09/29 00:46:55;;;;;;;28.85;16.95;;;15.00;99.90;;;;;;2089834;28;20037;-68
2021/09/29 00:47:55;;;;;;;28.50;16.73;;;15.00;99.90;;;;;;2089974;28;20013;-68
2021/09/29 00:48:56;;;;;;;33.90;17.95;;;15.00;99.90;;;;;;2090146;28;20029;-69
2021/09/29 00:49:57;;;;;;;27.42;16.25;;;15.00;99.90;;;;;;2090845;28;20052;-69
2021/09/29 00:50:58;;;;;;;28.23;15.75;;;15.00;99.90;;;;;;2089950;28;20471;-69
2021/09/29 00:52:00;;;;;;;24.10;15.05;;;15.00;99.90;;;;;;2081180;28;20026;-69
2021/09/29 00:53:01;;;;;;;24.98;15.68;;;15.00;99.90;;;;;;2090545;28;20024;-69
2021/09/29 00:54:03;;;;;;;27.52;16.83;;;15.00;99.90;;;;;;2090047;28;20025;-68
2021/09/29 00:55:08;;;;;;;25.65;16.17;;;15.00;99.90;;;;;;2089781;28;20029;-68
2021/09/29 00:56:09;;;;;;;25.48;15.88;;;15.00;99.90;;;;;;2089647;28;20036;-69
2021/09/29 00:57:10;;;;;;;27.65;15.68;;;15.00;99.90;;;;;;2089795;28;20078;-69
2021/09/29 00:58:10;;;;;;;22.80;14.52;;;14.90;99.90;;;;;;2089740;28;20469;-69
2021/09/29 00:59:11;;;;;;;25.38;15.10;;;14.90;99.90;;;;;;2089056;28;20121;-69
2021/09/29 01:00:12;;;;;;;25.67;15.23;;;14.90;99.90;;;;;;2089061;28;20032;-69
2021/09/29 01:01:14;;;;;;;24.23;14.88;;;15.00;99.90;;;;;;2089588;28;20063;-69
2021/09/29 01:02:14;;;;;;;21.98;14.52;;;15.00;99.90;;;;;;2089002;28;20487;-69
2021/09/29 01:03:15;;;;;;;22.88;14.65;;;14.90;99.90;;;;;;2089819;28;20032;-68
2021/09/29 01:04:16;;;;;;;24.25;14.77;;;15.00;99.90;;;;;;2089130;28;20032;-69
2021/09/29 01:05:17;;;;;;;25.88;15.70;;;14.90;99.90;;;;;;2089244;28;20040;-69
2021/09/29 01:06:41;;;;;;;23.10;14.75;;;14.90;99.90;;;;;;2089228;28;20417;-69
2021/09/29 01:08:00;;;;;;;23.90;14.27;;;14.90;99.90;;;;;;2084154;28;20021;-68
2021/09/29 01:09:29;;;;;;;22.52;14.60;;;14.90;99.90;;;;;;2089217;28;20063;-69
2021/09/29 01:10:39;;;;;;;21.92;14.13;;;14.90;99.90;;;;;;2089916;28;20450;-69
2021/09/29 01:11:51;;;;;;;21.80;15.00;;;14.90;99.90;;;;;;2089257;28;20029;-69
2021/09/29 01:13:00;;;;;;;25.85;14.68;;;14.90;99.90;;;;;;2088643;28;20074;-69
2021/09/29 01:14:28;;;;;;;23.48;14.57;;;14.90;99.90;;;;;;2089759;28;20036;-69
2021/09/29 01:15:31;;;;;;;20.73;13.70;;;14.90;99.90;;;;;;2089544;28;20501;-69
2021/09/29 01:16:37;;;;;;;21.02;13.63;;;14.90;99.90;;;;;;2090025;28;20024;-69
2021/09/29 01:17:45;;;;;;;24.05;14.50;;;14.90;99.90;;;;;;2090762;28;20056;-69
2021/09/29 01:18:54;;;;;;;20.83;14.02;;;14.90;99.90;;;;;;2089497;28;20064;-69
2021/09/29 01:20:02;;;;;;;22.95;14.52;;;14.90;99.90;;;;;;2089531;28;20021;-68
2021/09/29 01:21:58;;;;;;;23.77;14.27;;;14.90;99.90;;;;;;2087632;28;20036;-70
2021/09/29 01:23:10;;;;;;;23.55;14.32;;;14.90;99.90;;;;;;2089473;28;20036;-72
2021/09/29 01:24:20;;;;;;;21.42;13.43;;;14.90;99.90;;;;;;2089533;28;20013;-68
2021/09/29 01:25:50;;;;;;;19.95;13.20;;;14.90;99.90;;;;;;2089624;28;20037;-69
2021/09/29 01:26:51;;;;;;;21.33;13.38;;;14.90;99.90;;;;;;2089565;28;20021;-68
2021/09/29 01:27:54;;;;;;;21.05;13.55;;;14.90;99.90;;;;;;2089526;28;20082;-68
2021/09/29 01:29:01;;;;;;;20.00;13.15;;;14.90;99.90;;;;;;2089530;28;20033;-68
2021/09/29 01:30:02;;;;;;;22.92;13.23;;;14.90;99.90;;;;;;2089459;28;20055;-68
2021/09/29 01:31:04;;;;;;;20.40;12.65;;;14.90;99.90;;;;;;2088942;28;20070;-68
2021/09/29 01:32:06;;;;;;;23.20;13.88;;;14.90;99.90;;;;;;2088489;28;20682;-68
2021/09/29 01:33:07;;;;;;;19.67;12.80;;;15.00;99.90;;;;;;2088777;28;20033;-68
2021/09/29 01:34:09;;;;;;;19.05;12.70;;;14.90;99.90;;;;;;2088698;28;20025;-68
2021/09/29 01:35:11;;;;;;;22.70;13.35;;;15.00;99.90;;;;;;2088617;28;20061;-69
2021/09/29 01:36:12;;;;;;;21.35;13.20;;;15.00;99.90;;;;;;2089348;28;20041;-69
2021/09/29 01:37:13;;;;;;;19.45;12.93;;;15.00;99.90;;;;;;2088796;28;20035;-68
2021/09/29 01:38:14;;;;;;;21.25;12.93;;;15.00;99.90;;;;;;2080440;28;20068;-68
2021/09/29 01:39:17;;;;;;;21.70;13.07;;;15.00;99.90;;;;;;2088744;28;20484;-68
2021/09/29 01:40:18;;;;;;;21.27;12.57;;;15.00;99.90;;;;;;2089431;28;20412;-68
2021/09/29 01:41:19;;;;;;;19.75;12.45;;;15.00;99.90;;;;;;2088841;28;20044;-68
2021/09/29 01:42:19;;;;;;;20.17;12.93;;;15.00;99.90;;;;;;2089062;28;20056;-68
2021/09/29 01:43:20;;;;;;;19.90;12.77;;;15.00;99.90;;;;;;2089382;28;20074;-68
2021/09/29 01:44:21;;;;;;;23.33;14.20;;;15.00;99.90;;;;;;2097187;28;20506;-68
2021/09/29 01:45:22;;;;;;;22.15;13.82;;;15.00;99.90;;;;;;2097217;28;20040;-68
2021/09/29 01:46:24;;;;;;;22.27;14.00;;;15.00;99.90;;;;;;2088682;28;20052;-68
2021/09/29 01:47:25;;;;;;;24.63;15.73;;;15.00;99.90;;;;;;2088807;28;20111;-68
2021/09/29 01:48:26;;;;;;;27.30;15.95;;;14.90;99.90;;;;;;2089097;28;20074;-68
2021/09/29 01:49:46;;;;;;;23.27;14.52;;;14.90;99.90;;;;;;2089412;28;20032;-68
2021/09/29 01:50:48;;;;;;;;;;;14.90;99.90;;;;;;2088771;28;20081;-69
2021/09/29 01:51:51;;;;;;;26.27;14.18;;;14.90;99.90;;;;;;2080500;28;19924;-68
2021/09/29 01:52:53;;;;;;;21.92;13.52;;;14.90;99.90;;;;;;2088046;28;20021;-68
2021/09/29 01:53:56;;;;;;;18.00;12.57;;;14.90;99.90;;;;;;2087876;28;20398;-69
2021/09/29 01:54:59;;;;;;;20.65;12.73;;;14.90;99.90;;;;;;2087900;28;20032;-68
2021/09/29 01:56:00;;;;;;;20.27;13.07;;;14.90;99.90;;;;;;2088982;28;20033;-68
2021/09/29 01:57:01;;;;;;;21.80;13.05;;;14.90;99.90;;;;;;2089109;28;20119;-68
2021/09/29 01:58:01;;;;;;;20.48;13.18;;;14.90;99.90;;;;;;2088564;28;20032;-68
2021/09/29 01:59:03;;;;;;;16.92;12.55;;;14.90;99.90;;;;;;2088515;28;20470;-68
2021/09/29 02:00:06;;;;;;;21.67;13.82;;;14.90;99.90;;;;;;2089127;28;20344;-69
2021/09/29 02:01:12;;;;;;;18.75;13.02;;;15.00;99.90;;;;;;2088685;28;20422;-68
2021/09/29 02:02:13;;;;;;;22.13;13.23;;;14.90;99.90;;;;;;2096518;28;20068;-68
2021/09/29 02:03:20;;;;;;;17.50;12.77;;;15.00;99.90;;;;;;2096748;28;20786;-68
2021/09/29 02:04:20;;;;;;;21.55;13.30;;;15.00;99.90;;;;;;2089239;28;20083;-69
2021/09/29 02:05:49;;;;;;;21.05;13.45;;;15.00;99.90;;;;;;2088825;28;20511;-69
2021/09/29 02:06:53;;;;;;;20.02;13.20;;;15.00;99.90;;;;;;2088992;28;20402;-69
2021/09/29 02:07:53;;;;;;;20.05;13.13;;;15.00;99.90;;;;;;2088974;28;20395;-68
2021/09/29 02:08:54;;;;;;;18.35;12.57;;;15.00;99.90;;;;;;2089266;28;20840;-68
2021/09/29 02:09:55;;;;;;;25.52;15.85;;;15.00;99.90;;;;;;2088426;28;20074;-68
2021/09/29 02:10:55;;;;;;;22.95;14.48;;;15.00;99.90;;;;;;2088078;28;20025;-68
2021/09/29 02:11:57;;;;;;;22.50;14.13;;;15.00;99.90;;;;;;2088874;28;20032;-68
2021/09/29 02:12:57;;;;;;;20.73;13.75;;;15.00;99.90;;;;;;2089223;28;20032;-69
2021/09/29 02:13:58;;;;;;;18.92;12.68;;;14.90;99.90;;;;;;2089101;28;20093;-68
2021/09/29 02:14:59;;;;;;;19.52;12.90;;;15.00;99.90;;;;;;2089147;28;20029;-68
2021/09/29 02:15:59;;;;;;;18.73;12.55;;;15.00;99.90;;;;;;2096829;28;20028;-68
2021/09/29 02:17:00;;;;;;;19.30;12.65;;;15.00;99.90;;;;;;2096881;28;20029;-68
2021/09/29 02:18:01;;;;;;;20.48;13.10;;;15.00;99.90;;;;;;2096840;28;20066;-68
2021/09/29 02:19:01;;;;;;;17.52;12.40;;;15.00;99.90;;;;;;2088470;28;20029;-68
2021/09/29 02:20:03;;;;;;;17.63;11.80;;;15.00;99.90;;;;;;2088623;28;20502;-69
2021/09/29 02:21:04;;;;;;;19.23;12.57;;;15.00;99.90;;;;;;2088477;28;20484;-69
2021/09/29 02:22:05;;;;;;;22.48;13.40;;;15.00;99.90;;;;;;2096480;28;20095;-69
2021/09/29 02:23:05;;;;;;;18.92;12.55;;;15.00;99.90;;;;;;2096749;28;20436;-69
2021/09/29 02:24:06;;;;;;;17.42;12.23;;;15.00;99.90;;;;;;2088939;28;20583;-67
2021/09/29 02:25:09;;;;;;;17.70;12.30;;;15.00;99.90;;;;;;2096662;28;20029;-70
2021/09/29 02:26:10;;;;;;;21.40;12.68;;;15.00;99.90;;;;;;2088303;28;20037;-68
2021/09/29 02:27:11;;;;;;;20.02;13.02;;;15.00;99.90;;;;;;2088813;28;20031;-69
2021/09/29 02:28:11;;;;;;;17.98;11.95;;;15.00;99.90;;;;;;2097016;28;20103;-69
2021/09/29 02:29:14;;;;;;;17.02;12.27;;;15.00;99.90;;;;;;2096687;28;20032;-71
2021/09/29 02:30:14;;;;;;;16.65;12.15;;;15.00;99.90;;;;;;2088864;28;20021;-70
2021/09/29 02:31:16;;;;;;;18.27;12.18;;;15.00;99.90;;;;;;2088662;28;20085;-71
2021/09/29 02:32:17;;;;;;;18.23;11.38;;;15.00;99.90;;;;;;2089047;28;20036;-71
2021/09/29 02:33:17;;;;;;;15.93;11.68;;;15.00;99.90;;;;;;2089159;28;20519;-71
2021/09/29 02:34:18;;;;;;;17.85;12.05;;;15.00;99.90;;;;;;2089235;28;20021;-70
2021/09/29 02:35:19;;;;;;;17.45;12.50;;;15.00;99.90;;;;;;2089262;28;20025;-70
2021/09/29 02:36:20;;;;;;;16.90;11.93;;;15.00;99.90;;;;;;2089685;28;20041;-70
2021/09/29 02:37:21;;;;;;;16.65;11.98;;;15.00;99.90;;;;;;2089587;28;20028;-70
2021/09/29 02:38:21;;;;;;;19.13;13.18;;;15.00;99.90;;;;;;2089732;28;20061;-70
2021/09/29 02:39:22;;;;;;;17.00;12.15;;;15.00;99.90;;;;;;2089515;28;20037;-68
2021/09/29 02:40:23;;;;;;;19.45;12.32;;;15.00;99.90;;;;;;2089908;28;20186;-70
2021/09/29 02:41:24;;;;;;;19.13;13.18;;;15.00;99.90;;;;;;2089175;28;20060;-69
2021/09/29 02:42:25;;;;;;;18.98;13.18;;;15.00;99.90;;;;;;2089680;28;20036;-70
2021/09/29 02:43:25;;;;;;;17.35;12.32;;;15.00;99.90;;;;;;2089571;28;20093;-70
2021/09/29 02:44:26;;;;;;;23.90;13.38;;;15.00;99.90;;;;;;2089940;28;20119;-70
2021/09/29 02:45:26;;;;;;;19.10;12.93;;;15.00;99.90;;;;;;2089465;28;20029;-70
2021/09/29 02:46:27;;;;;;;17.90;13.13;;;15.00;99.90;;;;;;2089524;28;20029;-68
2021/09/29 02:47:28;;;;;;;18.58;13.25;;;15.00;99.90;;;;;;2089477;28;20513;-70
2021/09/29 02:48:29;;;;;;;17.63;12.02;;;15.00;99.90;;;;;;2089039;28;20115;-68
2021/09/29 02:49:29;;;;;;;19.00;12.73;;;15.00;99.90;;;;;;2088962;28;20029;-70
2021/09/29 02:50:30;;;;;;;17.20;12.80;;;15.00;99.90;;;;;;2088732;28;20028;-70
2021/09/29 02:51:31;;;;;;;16.90;11.77;;;15.00;99.90;;;;;;2088136;28;20083;-70
2021/09/29 02:52:31;;;;;;;18.25;12.70;;;15.00;99.90;;;;;;2088695;28;20033;-69
2021/09/29 02:53:32;;;;;;;19.10;12.98;;;15.10;99.90;;;;;;2088843;28;20032;-70
2021/09/29 02:54:32;;;;;;;20.17;13.43;;;15.00;99.90;;;;;;2080683;28;20029;-70
2021/09/29 02:55:33;;;;;;;19.52;13.15;;;15.00;99.90;;;;;;2088722;28;20021;-70
2021/09/29 02:56:34;;;;;;;18.50;13.30;;;15.10;99.90;;;;;;2088576;28;20028;-70
2021/09/29 02:57:34;;;;;;;20.38;13.88;;;15.00;99.90;;;;;;2088756;28;20125;-70
2021/09/29 02:58:35;;;;;;;20.58;14.07;;;15.00;99.90;;;;;;2089356;28;20075;-70
2021/09/29 02:59:35;;;;;;;19.15;13.70;;;15.10;99.90;;;;;;2089371;28;20029;-70
2021/09/29 03:00:36;;;;;;;20.88;14.20;;;15.00;99.90;;;;;;2088931;28;20029;-68
2021/09/29 03:01:39;;;;;;;18.85;13.25;;;15.00;99.90;;;;;;2088128;28;20086;-70
2021/09/29 03:02:39;;;;;;;20.00;13.68;;;15.00;99.90;;;;;;2088658;28;20009;-70
2021/09/29 03:03:40;;;;;;;20.90;14.07;;;15.00;99.90;;;;;;2088346;28;20025;-72
2021/09/29 03:04:41;;;;;;;19.13;13.32;;;15.00;99.90;;;;;;2088463;28;20033;-70
2021/09/29 03:05:41;;;;;;;20.98;14.00;;;15.00;99.90;;;;;;2089115;28;20017;-70
2021/09/29 03:06:42;;;;;;;22.33;13.73;;;15.00;99.90;;;;;;2088641;28;20571;-70
2021/09/29 03:07:42;;;;;;;20.45;13.65;;;15.10;99.90;;;;;;2088168;28;20063;-70
2021/09/29 03:08:43;;;;;;;23.50;14.93;;;15.10;99.90;;;;;;2088941;28;20624;-67
2021/09/29 03:09:44;;;;;;;20.55;14.02;;;15.00;99.90;;;;;;2088855;28;20047;-70
2021/09/29 03:10:44;;;;;;;24.05;15.55;;;15.10;99.90;;;;;;2088878;28;20530;-70
2021/09/29 03:11:45;;;;;;;28.42;16.88;;;15.00;99.90;;;;;;2087452;28;20033;-71
2021/09/29 03:12:46;;;;;;;27.15;16.60;;;15.10;99.90;;;;;;2087908;28;20836;-70
2021/09/29 03:13:47;;;;;;;28.33;17.90;;;15.00;99.90;;;;;;2088618;28;20044;-70
2021/09/29 03:14:48;;;;;;;27.00;16.92;;;15.10;99.90;;;;;;2096603;28;20074;-70
2021/09/29 03:15:49;;;;;;;27.77;17.65;;;15.00;99.90;;;;;;2096403;28;20875;-70
2021/09/29 03:16:49;;;;;;;29.92;18.45;;;15.00;99.90;;;;;;2088720;28;20028;-70
2021/09/29 03:17:50;;;;;;;30.48;18.88;;;15.00;99.90;;;;;;2088911;28;20025;-71
2021/09/29 03:18:51;;;;;;;29.70;18.65;;;15.00;99.90;;;;;;2088081;28;20024;-68
2021/09/29 03:19:51;;;;;;;31.90;19.00;;;15.00;99.90;;;;;;2079933;28;20030;-70
2021/09/29 03:20:52;;;;;;;30.85;20.23;;;15.00;99.90;;;;;;2079274;28;20029;-70
2021/09/29 03:21:53;;;;;;;32.67;20.00;;;15.00;99.90;;;;;;2088086;28;20032;-70
2021/09/29 03:22:54;;;;;;;30.67;18.98;;;15.00;99.90;;;;;;2087740;28;20501;-69
2021/09/29 03:23:55;;;;;;;29.42;18.42;;;15.00;99.90;;;;;;2079453;28;20518;-69
2021/09/29 03:24:55;;;;;;;28.65;18.15;;;15.00;99.90;;;;;;2088042;28;20048;-69
2021/09/29 03:25:56;;;;;;;29.88;18.80;;;15.00;99.90;;;;;;2088108;28;20800;-70
2021/09/29 03:26:57;;;;;;;28.25;18.08;;;15.00;99.90;;;;;;2088071;28;20104;-70
2021/09/29 03:27:57;;;;;;;27.90;18.17;;;15.00;99.90;;;;;;2088689;28;20037;-70
2021/09/29 03:28:58;;;;;;;26.73;17.15;;;15.00;99.90;;;;;;2088719;28;20041;-68
2021/09/29 03:29:58;;;;;;;28.23;17.95;;;15.10;99.90;;;;;;2088622;28;20024;-68
2021/09/29 03:30:59;;;;;;;25.25;16.73;;;15.10;99.90;;;;;;2088182;28;20065;-68
2021/09/29 03:32:00;;;;;;;26.73;17.50;;;15.00;99.90;;;;;;2088519;28;20029;-68
2021/09/29 03:33:00;;;;;;;27.83;17.88;;;15.10;99.90;;;;;;2088873;28;20063;-68
2021/09/29 03:34:01;;;;;;;29.05;17.02;;;15.10;99.90;;;;;;2088533;28;20029;-68
2021/09/29 03:35:02;;;;;;;26.55;17.35;;;15.00;99.90;;;;;;2088598;28;20035;-68
2021/09/29 03:36:03;;;;;;;27.48;17.75;;;15.00;99.90;;;;;;2088614;28;20124;-68
2021/09/29 03:37:03;;;;;;;27.77;18.65;;;15.10;99.90;;;;;;2087814;28;20090;-68
2021/09/29 03:38:04;;;;;;;30.55;19.40;;;15.10;99.90;;;;;;2079971;28;20502;-68
2021/09/29 03:39:05;;;;;;;33.72;20.83;;;15.10;99.90;;;;;;2088172;28;20025;-68
2021/09/29 03:40:08;;;;;;;32.67;20.33;;;15.10;99.90;;;;;;2088745;28;20033;-69
2021/09/29 03:41:09;;;;;;;36.33;21.95;;;15.10;99.90;;;;;;2088461;28;20044;-68
2021/09/29 03:42:09;;;;;;;34.25;20.25;;;15.10;99.90;;;;;;2088362;28;20035;-68
2021/09/29 03:43:10;;;;;;;33.97;20.23;;;15.00;99.90;;;;;;2088266;28;20071;-68
2021/09/29 03:44:11;;;;;;;30.95;19.25;;;15.10;99.90;;;;;;2088692;28;20045;-68
2021/09/29 03:45:12;;;;;;;31.95;20.23;;;15.00;99.90;;;;;;2088713;28;20494;-68
2021/09/29 03:46:13;;;;;;;30.15;19.10;;;15.10;99.90;;;;;;2088606;28;20123;-68
2021/09/29 03:47:13;;;;;;;34.25;21.15;;;15.00;99.90;;;;;;2088656;28;20021;-69
2021/09/29 03:48:14;;;;;;;30.02;19.35;;;15.00;99.90;;;;;;2096618;28;20036;-68
2021/09/29 03:49:15;;;;;;;29.85;19.50;;;15.10;99.90;;;;;;2096389;28;20155;-68
2021/09/29 03:50:15;;;;;;;31.30;19.88;;;15.00;99.90;;;;;;2088619;28;20539;-68
2021/09/29 03:51:16;;;;;;;33.17;21.38;;;15.10;99.90;;;;;;2088096;28;20600;-69
2021/09/29 03:52:17;;;;;;;31.55;19.98;;;15.10;99.90;;;;;;2088391;28;20033;-69
2021/09/29 03:53:18;;;;;;;33.90;21.58;;;15.10;99.90;;;;;;2087972;28;20036;-69
2021/09/29 03:54:18;;;;;;;32.00;20.75;;;15.10;99.90;;;;;;2088062;28;20076;-69
2021/09/29 03:55:19;;;;;;;31.98;20.73;;;15.00;99.90;;;;;;2088240;28;20033;-68
2021/09/29 03:56:20;;;;;;;29.52;19.75;;;15.00;99.90;;;;;;2088013;28;20112;-70
2021/09/29 03:57:20;;;;;;;30.90;19.90;;;15.00;99.90;;;;;;2088586;28;20106;-68
2021/09/29 03:58:21;;;;;;;32.25;21.17;;;15.10;99.90;;;;;;2087837;28;20040;-69
2021/09/29 03:59:22;;;;;;;31.23;19.80;;;15.00;99.90;;;;;;2087974;28;20060;-69
2021/09/29 04:00:22;;;;;;;31.48;21.00;;;15.10;99.90;;;;;;2096357;28;20402;-69
2021/09/29 04:01:23;;;;;;;33.30;21.20;;;15.10;99.90;;;;;;2095749;28;20070;-69
2021/09/29 04:02:23;;;;;;;33.35;21.17;;;15.00;99.90;;;;;;2095875;28;20138;-68
2021/09/29 04:03:24;;;;;;;34.45;21.80;;;15.00;99.90;;;;;;2096019;28;20071;-68
2021/09/29 04:04:26;;;;;;;33.90;21.20;;;15.10;99.90;;;;;;2088420;28;20041;-69
2021/09/29 04:05:27;;;;;;;31.23;20.30;;;15.00;99.90;;;;;;2088435;28;20101;-68
2021/09/29 04:06:27;;;;;;;34.00;21.42;;;15.00;99.90;;;;;;2087778;28;20075;-68
2021/09/29 04:07:28;;;;;;;33.42;21.25;;;15.00;99.90;;;;;;2087765;28;20025;-68
2021/09/29 04:08:28;;;;;;;32.72;20.70;;;15.00;99.90;;;;;;2088425;28;20025;-69
2021/09/29 04:09:29;;;;;;;33.17;20.98;;;15.10;99.90;;;;;;2088498;28;20096;-68
2021/09/29 04:10:29;;;;;;;33.72;21.75;;;15.00;99.90;;;;;;2088473;28;20029;-68
2021/09/29 04:11:30;;;;;;;35.55;21.25;;;15.00;99.90;;;;;;2088012;28;20059;-69
2021/09/29 04:12:31;;;;;;;31.95;20.40;;;15.10;99.90;;;;;;2088208;28;20506;-68
2021/09/29 04:13:31;;;;;;;35.78;22.30;;;15.00;99.90;;;;;;2088616;28;20381;-68
2021/09/29 04:14:33;;;;;;;37.38;23.17;;;15.00;99.90;;;;;;2088605;28;20031;-68
2021/09/29 04:15:34;;;;;;;33.75;21.75;;;15.10;99.90;;;;;;2088460;28;20123;-68
2021/09/29 04:16:35;;;;;;;35.38;21.13;;;15.10;99.90;;;;;;2088526;28;20121;-68
2021/09/29 04:17:37;;;;;;;32.22;20.63;;;15.10;99.90;;;;;;2087590;28;20025;-68
2021/09/29 04:18:40;;;;;;;36.88;22.60;;;15.10;99.90;;;;;;2087761;28;20040;-68
2021/09/29 04:19:41;;;;;;;34.95;21.73;;;15.10;99.90;;;;;;2088467;28;20020;-68
2021/09/29 04:20:42;;;;;;;31.55;20.98;;;15.10;99.90;;;;;;2088547;28;20059;-68
2021/09/29 04:21:43;;;;;;;36.33;22.50;;;15.00;99.90;;;;;;2095773;28;20100;-68
2021/09/29 04:22:44;;;;;;;34.50;21.98;;;15.10;99.90;;;;;;2095877;28;20054;-68
2021/09/29 04:23:44;;;;;;;37.38;22.65;;;15.10;99.90;;;;;;2088426;28;20079;-68
2021/09/29 04:24:45;;;;;;;36.05;23.35;;;15.10;99.90;;;;;;2088553;28;20036;-68
2021/09/29 04:25:48;;;;;;;37.22;23.25;;;15.00;99.90;;;;;;2088411;28;20048;-68
2021/09/29 04:26:49;;;;;;;36.97;22.63;;;15.00;99.90;;;;;;2088445;28;20037;-68
2021/09/29 04:27:50;;;;;;;34.63;22.63;;;15.00;99.90;;;;;;2088453;28;20013;-68
2021/09/29 04:28:50;;;;;;;36.00;22.23;;;15.00;99.90;;;;;;2088631;28;20513;-68
2021/09/29 04:29:51;;;;;;;36.60;22.55;;;15.00;99.90;;;;;;2089195;28;20041;-69
2021/09/29 04:30:52;;;;;;;34.83;21.98;;;15.10;99.90;;;;;;2089386;28;20021;-69
2021/09/29 04:31:52;;;;;;;36.33;23.48;;;15.00;99.90;;;;;;2089412;28;20017;-68
2021/09/29 04:32:55;;;;;;;34.70;22.88;;;15.00;99.90;;;;;;2089699;28;20394;-69
2021/09/29 04:33:55;;;;;;;33.75;21.92;;;15.00;99.90;;;;;;2089665;28;20091;-68
2021/09/29 04:34:56;;;;;;;34.10;21.80;;;15.00;99.90;;;;;;2089877;28;20059;-69
2021/09/29 04:35:57;;;;;;;32.00;21.55;;;15.00;99.90;;;;;;2089723;28;20040;-68
2021/09/29 04:36:58;;;;;;;33.83;20.30;;;15.00;99.90;;;;;;2090324;28;20558;-69
2021/09/29 04:37:58;;;;;;;33.58;20.67;;;15.10;99.90;;;;;;2090335;28;20116;-69
2021/09/29 04:38:59;;;;;;;33.08;21.52;;;15.10;99.90;;;;;;2090266;28;20056;-69
2021/09/29 04:40:02;;;;;;;32.33;21.15;;;15.00;99.90;;;;;;2090439;28;20037;-69
2021/09/29 04:41:06;;;;;;;31.98;20.55;;;15.10;99.90;;;;;;2089585;28;20040;-69
2021/09/29 04:42:07;;;;;;;32.03;20.67;;;15.00;99.90;;;;;;2090088;28;20060;-69
2021/09/29 04:43:07;;;;;;;31.98;21.15;;;15.00;99.90;;;;;;2090006;28;20025;-68
2021/09/29 04:44:08;;;;;;;33.55;21.50;;;15.00;99.90;;;;;;2089674;28;20078;-69
2021/09/29 04:45:09;;;;;;;32.28;21.13;;;15.00;99.90;;;;;;2089768;28;20083;-68
2021/09/29 04:46:10;;;;;;;33.40;21.52;;;15.00;99.90;;;;;;2089006;28;20029;-69
2021/09/29 04:47:10;;;;;;;32.75;21.50;;;15.00;99.90;;;;;;2080933;28;20052;-68
2021/09/29 04:48:11;;;;;;;34.60;21.58;;;15.00;99.90;;;;;;2089226;28;20047;-68
2021/09/29 04:49:11;;;;;;;32.85;21.38;;;15.00;99.90;;;;;;2089036;28;20017;-69
2021/09/29 04:50:12;;;;;;;32.22;21.45;;;15.00;99.90;;;;;;2089204;28;20446;-69
2021/09/29 04:51:14;;;;;;;32.42;21.15;;;15.00;99.90;;;;;;2089379;28;20025;-68
2021/09/29 04:52:15;;;;;;;32.38;21.25;;;15.00;99.90;;;;;;2089283;28;20116;-69
2021/09/29 04:53:15;;;;;;;32.33;20.67;;;15.00;99.90;;;;;;2089617;28;20025;-69
2021/09/29 04:54:17;;;;;;;30.92;20.42;;;15.00;99.90;;;;;;2089796;28;20029;-68
2021/09/29 04:55:17;;;;;;;33.40;22.58;;;15.00;99.90;;;;;;2089754;28;20029;-68
2021/09/29 04:56:18;;;;;;;32.00;21.15;;;15.00;99.90;;;;;;2089669;28;20460;-68
2021/09/29 04:57:19;;;;;;;31.45;20.92;;;15.00;99.90;;;;;;2089673;28;20118;-68
2021/09/29 04:58:20;;;;;;;33.60;21.88;;;15.00;99.90;;;;;;2089624;28;20106;-68
2021/09/29 04:59:21;;;;;;;33.45;22.15;;;15.00;99.90;;;;;;2089637;28;20471;-69
2021/09/29 05:00:21;;;;;;;32.35;21.13;;;15.00;99.90;;;;;;2089607;28;20021;-68
2021/09/29 05:01:25;;;;;;;35.95;22.80;;;15.00;99.90;;;;;;2088380;28;20091;-68
2021/09/29 05:02:27;;;;;;;31.73;21.08;;;15.00;99.90;;;;;;2088729;28;20033;-69
2021/09/29 05:03:31;;;;;;;32.00;21.95;;;15.00;99.90;;;;;;2089440;28;20559;-68
2021/09/29 05:04:32;;;;;;;31.95;21.08;;;15.00;99.90;;;;;;2089677;28;20033;-69
2021/09/29 05:05:34;;;;;;;33.67;21.55;;;15.00;99.90;;;;;;2089585;28;20037;-68
2021/09/29 05:06:36;;;;;;;32.90;21.08;;;15.00;99.90;;;;;;2089649;28;20035;-69
2021/09/29 05:07:39;;;;;;;33.28;21.52;;;15.00;99.90;;;;;;2089471;28;20116;-69
2021/09/29 05:08:39;;;;;;;32.13;21.65;;;15.10;99.90;;;;;;2089543;28;20052;-69
2021/09/29 05:09:40;;;;;;;30.92;20.88;;;15.00;99.90;;;;;;2089585;28;20029;-68
2021/09/29 05:11:08;;;;;;;32.92;21.73;;;15.10;99.90;;;;;;2089565;28;20028;-68
2021/09/29 05:12:15;;;;;;;31.33;20.27;;;15.10;99.90;;;;;;2089391;28;20436;-70
2021/09/29 05:13:25;;;;;;;30.85;20.58;;;15.10;99.90;;;;;;2089528;28;20082;-70
2021/09/29 05:14:25;;;;;;;30.95;20.33;;;15.10;99.90;;;;;;2089757;28;20036;-69
2021/09/29 05:15:26;;;;;;;32.65;19.90;;;15.00;99.90;;;;;;2089793;28;20040;-68